Time;durP1;ratioP1;P1;durP2;ratioP2;P2;SDS_P1;SDS_P2;PMS_P1;PMS_P2;Temp;Humidity;BMP_temperature;BMP_pressure;BME280_temperature;BME280_humidity;BME280_pressure;Samples;Min_cycle;Max_cycle;Signal;HPM_P1;HPM_P2
2022/06/26 00:02:24;;;;;;;35.22;28.08;;;;;;;;;;5000237;28;20480;-80
2022/06/26 00:04:49;;;;;;;32.60;25.95;;;;;;;;;;4987368;28;20037;-80
2022/06/26 00:07:15;;;;;;;30.65;27.35;;;;;;;;;;5029666;28;20025;-80
2022/06/26 00:09:41;;;;;;;31.25;27.52;;;;;;;;;;5030447;28;20037;-80
2022/06/26 00:12:07;;;;;;;36.50;28.38;;;;;;;;;;5012698;28;20084;-81
2022/06/26 00:14:32;;;;;;;36.20;28.30;;;;;;;;;;5013686;28;20037;-81
2022/06/26 00:16:58;;;;;;;32.83;29.10;;;;;;;;;;5013068;28;20475;-80
2022/06/26 00:19:23;;;;;;;42.45;29.05;;;;;;;;;;5030793;28;20087;-82
2022/06/26 00:21:50;;;;;;;40.25;30.83;;;;;;;;;;5020017;28;20507;-82
2022/06/26 00:24:16;;;;;;;36.92;28.50;;;;;;;;;;4992453;28;20057;-80
2022/06/26 00:26:41;;;;;;;37.65;29.55;;;;;;;;;;4993863;28;20049;-82
2022/06/26 00:29:07;;;;;;;32.63;28.85;;;;;;;;;;5010376;28;20033;-81
2022/06/26 00:31:32;;;;;;;32.97;28.70;;;;;;;;;;4993845;28;20377;-81
2022/06/26 00:33:58;;;;;;;33.50;29.42;;;;;;;;;;5011529;28;20034;-81
2022/06/26 00:36:24;;;;;;;35.38;29.15;;;;;;;;;;5010692;28;20373;-82
2022/06/26 00:38:49;;;;;;;37.42;28.23;;;;;;;;;;5010760;28;20113;-80
2022/06/26 00:41:15;;;;;;;33.83;28.80;;;;;;;;;;5010419;28;20030;-81
2022/06/26 00:43:41;;;;;;;33.72;28.02;;;;;;;;;;5009836;28;20033;-81
2022/06/26 00:46:06;;;;;;;33.30;28.33;;;;;;;;;;5008838;28;20021;-82
2022/06/26 00:48:32;;;;;;;30.75;27.20;;;;;;;;;;5010194;28;20034;-81
2022/06/26 00:50:57;;;;;;;34.20;28.90;;;;;;;;;;5010152;28;20499;-81
2022/06/26 00:53:23;;;;;;;34.65;27.30;;;;;;;;;;5009044;28;20026;-81
2022/06/26 00:55:48;;;;;;;31.83;26.58;;;;;;;;;;5011654;28;20025;-81
2022/06/26 00:58:14;;;;;;;34.20;28.25;;;;;;;;;;5025420;28;20026;-82
2022/06/26 01:00:41;;;;;;;29.33;25.90;;;;;;;;;;5011457;28;20418;-80
2022/06/26 01:03:07;;;;;;;31.65;26.90;;;;;;;;;;5025291;28;20049;-81
2022/06/26 01:05:33;;;;;;;30.88;27.67;;;;;;;;;;4993373;28;20018;-82
2022/06/26 01:07:58;;;;;;;33.72;27.75;;;;;;;;;;5026343;28;20034;-81
2022/06/26 01:10:24;;;;;;;32.80;27.63;;;;;;;;;;4992746;28;20435;-81
2022/06/26 01:12:50;;;;;;;35.30;28.00;;;;;;;;;;5002071;28;20041;-80
2022/06/26 01:15:16;;;;;;;35.42;27.13;;;;;;;;;;5003761;28;20512;-81
2022/06/26 01:17:41;;;;;;;28.90;25.80;;;;;;;;;;5001193;28;20042;-81
2022/06/26 01:20:11;;;;;;;33.50;26.75;;;;;;;;;;5018774;28;20031;-80
2022/06/26 01:22:36;;;;;;;31.85;26.40;;;;;;;;;;4996395;28;20042;-80
2022/06/26 01:25:02;;;;;;;31.25;26.73;;;;;;;;;;5027964;28;20538;-80
2022/06/26 01:27:29;;;;;;;32.10;27.10;;;;;;;;;;4983472;28;20054;-82
2022/06/26 01:29:54;;;;;;;32.90;27.00;;;;;;;;;;5028902;28;20059;-82
2022/06/26 01:32:20;;;;;;;30.40;26.73;;;;;;;;;;5010788;28;20132;-82
2022/06/26 01:34:45;;;;;;;31.63;25.55;;;;;;;;;;5008999;28;20112;-81
2022/06/26 01:37:11;;;;;;;28.33;25.23;;;;;;;;;;5011448;28;20026;-81
2022/06/26 01:39:36;;;;;;;30.67;25.95;;;;;;;;;;5010144;28;20056;-82
2022/06/26 01:42:03;;;;;;;32.80;26.10;;;;;;;;;;5007159;28;20523;-80
2022/06/26 01:44:29;;;;;;;33.58;25.35;;;;;;;;;;4976547;28;20021;-81
2022/06/26 01:46:55;;;;;;;31.08;25.13;;;;;;;;;;5014146;28;20037;-80
2022/06/26 01:49:25;;;;;;;29.50;25.65;;;;;;;;;;4988434;28;20029;-80
2022/06/26 01:51:52;;;;;;;28.60;24.77;;;;;;;;;;5025066;28;20037;-81
2022/06/26 01:54:18;;;;;;;29.02;25.30;;;;;;;;;;5004424;28;20120;-80
2022/06/26 01:56:45;;;;;;;30.55;24.58;;;;;;;;;;4989739;28;20034;-81
2022/06/26 01:59:11;;;;;;;28.98;25.67;;;;;;;;;;5005127;28;20122;-81
2022/06/26 02:01:40;;;;;;;28.95;25.95;;;;;;;;;;5013689;28;20034;-81
2022/06/26 02:04:05;;;;;;;35.35;25.48;;;;;;;;;;5008769;28;20502;-82
2022/06/26 02:06:31;;;;;;;33.83;26.40;;;;;;;;;;5009035;28;20056;-81
2022/06/26 02:08:56;;;;;;;27.08;24.15;;;;;;;;;;4998621;28;20026;-81
2022/06/26 02:14:09;;;;;;;34.47;30.95;;;;;;;;;;5009917;28;20037;-81
2022/06/26 02:16:42;;;;;;;28.98;25.80;;;;;;;;;;4996836;28;20040;-80
2022/06/26 02:19:10;;;;;;;29.50;23.77;;;;;;;;;;5012811;28;20030;-80
2022/06/26 02:21:38;;;;;;;28.10;23.50;;;;;;;;;;4977266;28;20072;-81
2022/06/26 02:24:04;;;;;;;26.88;22.83;;;;;;;;;;5021896;28;20077;-80
2022/06/26 02:26:29;;;;;;;26.45;23.33;;;;;;;;;;5015632;28;20076;-80
2022/06/26 02:28:56;;;;;;;25.90;23.10;;;;;;;;;;5015082;28;20040;-80
2022/06/26 02:31:23;;;;;;;28.50;23.98;;;;;;;;;;5005521;28;20033;-80
2022/06/26 02:33:49;;;;;;;29.25;24.42;;;;;;;;;;5003449;28;20035;-81
2022/06/26 02:36:14;;;;;;;28.35;24.10;;;;;;;;;;5011675;28;20079;-82
2022/06/26 02:38:40;;;;;;;26.02;23.23;;;;;;;;;;5031858;28;20041;-81
2022/06/26 02:41:05;;;;;;;31.52;23.95;;;;;;;;;;5014273;28;20392;-80
2022/06/26 02:43:31;;;;;;;26.35;23.58;;;;;;;;;;5015275;28;20033;-81
2022/06/26 02:45:57;;;;;;;27.25;22.55;;;;;;;;;;4985556;28;20400;-80
2022/06/26 02:48:23;;;;;;;25.15;22.30;;;;;;;;;;5014837;28;20034;-81
2022/06/26 02:50:48;;;;;;;26.95;22.73;;;;;;;;;;4998359;28;20021;-80
2022/06/26 02:53:14;;;;;;;26.08;22.98;;;;;;;;;;4997881;28;20048;-80
2022/06/26 02:55:40;;;;;;;26.35;21.95;;;;;;;;;;5015143;28;20033;-81
2022/06/26 02:58:05;;;;;;;25.00;22.40;;;;;;;;;;5014219;28;20045;-81
2022/06/26 03:00:36;;;;;;;26.25;22.08;;;;;;;;;;5032819;28;20108;-81
2022/06/26 03:03:02;;;;;;;25.00;22.13;;;;;;;;;;5014027;28;20152;-81
2022/06/26 03:05:28;;;;;;;29.52;23.13;;;;;;;;;;5014979;28;20017;-81
2022/06/26 03:07:56;;;;;;;29.60;21.70;;;;;;;;;;4998775;28;20068;-81
2022/06/26 03:10:21;;;;;;;24.02;21.52;;;;;;;;;;5014232;28;20025;-81
2022/06/26 03:12:47;;;;;;;24.30;21.23;;;;;;;;;;5015311;28;20052;-81
2022/06/26 03:15:13;;;;;;;30.00;21.33;;;;;;;;;;5014664;28;20018;-82
2022/06/26 03:17:39;;;;;;;24.83;20.52;;;;;;;;;;4998307;28;20155;-81
2022/06/26 03:20:06;;;;;;;23.30;20.83;;;;;;;;;;5000706;28;20064;-81
2022/06/26 03:22:32;;;;;;;25.15;19.92;;;;;;;;;;4998338;28;20041;-80
2022/06/26 03:24:57;;;;;;;23.92;20.00;;;;;;;;;;5015368;28;20527;-80
2022/06/26 03:27:26;;;;;;;23.25;20.17;;;;;;;;;;5022219;28;20034;-80
2022/06/26 03:29:51;;;;;;;21.35;19.15;;;;;;;;;;5026581;28;20029;-80
2022/06/26 03:32:17;;;;;;;22.30;19.35;;;;;;;;;;5011714;28;20052;-80
2022/06/26 03:34:55;;;;;;;20.55;18.48;;;;;;;;;;4992941;28;20507;-81
2022/06/26 03:37:23;;;;;;;22.45;20.05;;;;;;;;;;4987367;28;20042;-81
2022/06/26 03:39:49;;;;;;;25.60;19.23;;;;;;;;;;5013485;28;20033;-81
2022/06/26 03:42:15;;;;;;;20.75;18.52;;;;;;;;;;5006869;28;20045;-80
2022/06/26 03:44:41;;;;;;;21.27;18.95;;;;;;;;;;5012952;28;20519;-80
2022/06/26 03:47:07;;;;;;;22.35;16.95;;;;;;;;;;5012953;28;20109;-80
2022/06/26 03:49:33;;;;;;;18.77;16.77;;;;;;;;;;4995081;28;20115;-81
2022/06/26 03:52:03;;;;;;;23.23;17.63;;;;;;;;;;5013122;28;20037;-81
2022/06/26 03:54:30;;;;;;;19.50;14.93;;;;;;;;;;5001411;28;20041;-80
2022/06/26 03:56:57;;;;;;;15.68;13.40;;;;;;;;;;4995621;28;20064;-80
2022/06/26 03:59:26;;;;;;;16.67;14.13;;;;;;;;;;4990985;28;20029;-80
2022/06/26 04:01:52;;;;;;;16.63;14.77;;;;;;;;;;4985684;28;20029;-81
2022/06/26 04:04:18;;;;;;;17.48;14.90;;;;;;;;;;5012035;28;20069;-81
2022/06/26 04:06:45;;;;;;;16.45;13.77;;;;;;;;;;5011666;28;20503;-80
2022/06/26 04:09:20;;;;;;;14.80;12.07;;;;;;;;;;4993545;28;20030;-81
2022/06/26 04:11:46;;;;;;;14.60;12.40;;;;;;;;;;5011596;28;20124;-81
2022/06/26 04:14:11;;;;;;;17.05;13.15;;;;;;;;;;5012989;28;20033;-81
2022/06/26 04:16:37;;;;;;;16.15;12.80;;;;;;;;;;5002280;28;20037;-81
2022/06/26 04:19:03;;;;;;;15.55;12.20;;;;;;;;;;5011484;28;20025;-81
2022/06/26 04:21:29;;;;;;;16.13;11.13;;;;;;;;;;4991783;28;20076;-80
2022/06/26 04:23:55;;;;;;;12.63;10.20;;;;;;;;;;4990191;28;20192;-81
2022/06/26 04:26:20;;;;;;;13.73;9.60;;;;;;;;;;5013451;28;20562;-80
2022/06/26 04:28:46;;;;;;;14.35;9.00;;;;;;;;;;5029944;28;20033;-80
2022/06/26 04:31:12;;;;;;;10.95;8.00;;;;;;;;;;5012755;28;20038;-82
2022/06/26 04:33:38;;;;;;;9.82;7.40;;;;;;;;;;5013680;28;20076;-81
2022/06/26 04:36:05;;;;;;;9.00;7.13;;;;;;;;;;5012556;28;20385;-81
2022/06/26 04:38:31;;;;;;;11.60;7.80;;;;;;;;;;4996951;28;20033;-80
2022/06/26 04:40:57;;;;;;;11.25;8.80;;;;;;;;;;5016184;28;20034;-80
2022/06/26 04:43:23;;;;;;;14.82;12.10;;;;;;;;;;5007423;28;20018;-83
2022/06/26 04:45:48;;;;;;;12.07;10.32;;;;;;;;;;4991613;28;20041;-80
2022/06/26 04:48:15;;;;;;;20.38;12.30;;;;;;;;;;5012830;28;20420;-81
2022/06/26 04:50:41;;;;;;;16.17;11.45;;;;;;;;;;4997370;28;20079;-81
2022/06/26 04:53:06;;;;;;;13.65;11.55;;;;;;;;;;4983148;28;20072;-81
2022/06/26 04:55:32;;;;;;;16.15;10.90;;;;;;;;;;4979443;28;20045;-81
2022/06/26 04:57:59;;;;;;;15.88;11.07;;;;;;;;;;5021377;28;20025;-81
2022/06/26 05:00:24;;;;;;;12.63;10.55;;;;;;;;;;5007845;28;20046;-82
2022/06/26 05:02:54;;;;;;;11.27;9.63;;;;;;;;;;5010414;28;20026;-80
2022/06/26 05:05:25;;;;;;;12.40;8.63;;;;;;;;;;5005759;28;20030;-81
2022/06/26 05:08:13;;;;;;;13.85;9.80;;;;;;;;;;5002602;28;20041;-80
2022/06/26 05:10:39;;;;;;;11.35;8.95;;;;;;;;;;5022317;28;20399;-81
2022/06/26 05:13:06;;;;;;;13.23;8.15;;;;;;;;;;5005715;28;20025;-82
2022/06/26 05:15:50;;;;;;;13.68;6.80;;;;;;;;;;5002833;28;20044;-82
2022/06/26 05:18:16;;;;;;;9.43;6.50;;;;;;;;;;5020472;28;20049;-84
2022/06/26 05:20:42;;;;;;;11.38;6.72;;;;;;;;;;4998167;28;20037;-82
2022/06/26 05:23:09;;;;;;;13.60;5.78;;;;;;;;;;5023246;28;20037;-82
2022/06/26 05:25:41;;;;;;;8.57;4.63;;;;;;;;;;5015836;28;20045;-82
2022/06/26 05:28:07;;;;;;;8.18;4.55;;;;;;;;;;5034912;28;20044;-83
2022/06/26 05:30:33;;;;;;;7.57;4.13;;;;;;;;;;5034962;28;20037;-83
2022/06/26 05:33:03;;;;;;;5.30;4.45;;;;;;;;;;5012483;28;20381;-82
2022/06/26 05:35:30;;;;;;;7.43;3.92;;;;;;;;;;5026291;28;20038;-82
2022/06/26 05:37:55;;;;;;;7.20;5.20;;;;;;;;;;4999432;28;20136;-82
2022/06/26 05:40:24;;;;;;;5.35;4.43;;;;;;;;;;5033162;28;20029;-82
2022/06/26 05:42:50;;;;;;;7.10;4.50;;;;;;;;;;5015746;28;20033;-82
2022/06/26 05:45:18;;;;;;;6.32;4.25;;;;;;;;;;5016959;28;20411;-81
2022/06/26 05:48:03;;;;;;;6.05;4.03;;;;;;;;;;5018468;28;20021;-82
2022/06/26 05:51:02;;;;;;;7.38;3.92;;;;;;;;;;5016605;28;20076;-81
2022/06/26 05:53:41;;;;;;;5.32;3.90;;;;;;;;;;5002273;28;20033;-81
2022/06/26 05:56:26;;;;;;;5.10;3.90;;;;;;;;;;5009480;28;20471;-82
2022/06/26 05:59:10;;;;;;;7.22;4.28;;;;;;;;;;5001293;28;20502;-82
2022/06/26 06:01:54;;;;;;;5.35;4.00;;;;;;;;;;5018715;28;20403;-83
2022/06/26 06:04:21;;;;;;;6.47;4.40;;;;;;;;;;5016094;28;20492;-82
2022/06/26 06:06:46;;;;;;;6.10;4.50;;;;;;;;;;4996518;28;20021;-81
2022/06/26 06:09:12;;;;;;;6.93;4.35;;;;;;;;;;5031043;28;20107;-81
2022/06/26 06:11:38;;;;;;;5.63;4.07;;;;;;;;;;4996926;28;20480;-81
2022/06/26 06:14:04;;;;;;;8.45;4.43;;;;;;;;;;5014329;28;20408;-83
2022/06/26 06:16:30;;;;;;;6.43;4.30;;;;;;;;;;4998535;28;20025;-83
2022/06/26 06:18:55;;;;;;;5.75;4.07;;;;;;;;;;4996410;28;20029;-83
2022/06/26 06:21:26;;;;;;;5.82;4.22;;;;;;;;;;5019626;28;20144;-82
2022/06/26 06:23:51;;;;;;;5.93;4.10;;;;;;;;;;5020913;28;20069;-81
2022/06/26 06:26:17;;;;;;;4.75;3.70;;;;;;;;;;4997656;28;20045;-82
2022/06/26 06:28:43;;;;;;;5.43;3.17;;;;;;;;;;4981645;28;20037;-81
2022/06/26 06:31:09;;;;;;;5.47;3.78;;;;;;;;;;5026723;28;20113;-82
2022/06/26 06:33:36;;;;;;;8.80;3.60;;;;;;;;;;5013663;28;20030;-82
2022/06/26 06:36:01;;;;;;;5.50;3.20;;;;;;;;;;5011508;28;20235;-82
2022/06/26 06:38:29;;;;;;;5.50;3.15;;;;;;;;;;4987402;28;20502;-81
2022/06/26 06:40:58;;;;;;;6.50;3.08;;;;;;;;;;5028955;28;20495;-82
2022/06/26 06:43:32;;;;;;;4.07;2.80;;;;;;;;;;5018184;28;20630;-82
2022/06/26 06:46:16;;;;;;;3.72;2.90;;;;;;;;;;5012995;28;20072;-81
2022/06/26 06:48:52;;;;;;;3.22;2.33;;;;;;;;;;5012569;28;20033;-81
2022/06/26 06:51:17;;;;;;;3.92;2.30;;;;;;;;;;5019464;28;20041;-82
2022/06/26 06:53:43;;;;;;;3.70;2.95;;;;;;;;;;5023771;28;20029;-82
2022/06/26 06:56:08;;;;;;;4.93;2.90;;;;;;;;;;5010726;28;20037;-82
2022/06/26 06:58:34;;;;;;;5.28;2.63;;;;;;;;;;5005363;28;20388;-82
2022/06/26 07:01:05;;;;;;;4.85;2.35;;;;;;;;;;4999085;28;20037;-82
2022/06/26 07:03:31;;;;;;;2.95;1.92;;;;;;;;;;4985154;28;20503;-81
2022/06/26 07:05:56;;;;;;;5.53;2.50;;;;;;;;;;5020909;28;20030;-83
2022/06/26 07:08:22;;;;;;;3.80;2.22;;;;;;;;;;5022413;28;20100;-81
2022/06/26 07:10:47;;;;;;;3.67;2.22;;;;;;;;;;5019426;28;20037;-82
2022/06/26 07:13:13;;;;;;;3.17;2.55;;;;;;;;;;5022865;28;20060;-83
2022/06/26 07:15:38;;;;;;;4.03;2.53;;;;;;;;;;5018019;28;20033;-83
2022/06/26 07:18:04;;;;;;;4.55;2.15;;;;;;;;;;5000232;28;20504;-83
2022/06/26 07:20:29;;;;;;;2.88;2.13;;;;;;;;;;4985862;28;20448;-81
2022/06/26 07:22:55;;;;;;;3.25;2.10;;;;;;;;;;5018622;28;20120;-82
2022/06/26 07:25:35;;;;;;;3.95;2.20;;;;;;;;;;5030726;28;20053;-82
2022/06/26 07:28:05;;;;;;;2.58;1.80;;;;;;;;;;4997578;28;20041;-83
2022/06/26 07:30:35;;;;;;;3.35;2.30;;;;;;;;;;5007156;28;20037;-82
2022/06/26 07:33:02;;;;;;;3.63;2.00;;;;;;;;;;5025046;28;20048;-83
2022/06/26 07:35:30;;;;;;;3.75;1.75;;;;;;;;;;5013585;28;20033;-81
2022/06/26 07:37:56;;;;;;;2.97;2.10;;;;;;;;;;4999660;28;20033;-82
2022/06/26 07:40:22;;;;;;;5.57;2.17;;;;;;;;;;4997477;28;20492;-82
2022/06/26 07:42:47;;;;;;;3.67;1.80;;;;;;;;;;5026874;28;20041;-82
2022/06/26 07:45:14;;;;;;;3.22;1.90;;;;;;;;;;5008274;28;20025;-82
2022/06/26 07:48:06;;;;;;;2.58;2.20;;;;;;;;;;5021088;28;20026;-82
2022/06/26 07:50:34;;;;;;;5.80;2.30;;;;;;;;;;5018091;28;20104;-82
2022/06/26 07:53:00;;;;;;;4.25;2.20;;;;;;;;;;4993069;28;20033;-81
2022/06/26 07:55:25;;;;;;;5.93;1.95;;;;;;;;;;5026849;28;20412;-81
2022/06/26 07:57:51;;;;;;;3.45;1.77;;;;;;;;;;5010591;28;20037;-82
2022/06/26 08:00:16;;;;;;;6.15;1.95;;;;;;;;;;5024860;28;20034;-81
2022/06/26 08:02:42;;;;;;;3.80;1.50;;;;;;;;;;5028420;28;20095;-81
2022/06/26 08:05:07;;;;;;;2.22;1.65;;;;;;;;;;5023584;28;20382;-82
2022/06/26 08:07:33;;;;;;;2.83;1.63;;;;;;;;;;5008978;28;20060;-82
2022/06/26 08:09:58;;;;;;;3.38;2.00;;;;;;;;;;5026644;28;20156;-82
2022/06/26 08:12:24;;;;;;;2.85;1.80;;;;;;;;;;5025312;28;20040;-84
2022/06/26 08:14:49;;;;;;;2.80;2.00;;;;;;;;;;4995056;28;20033;-84
2022/06/26 08:17:15;;;;;;;2.63;1.70;;;;;;;;;;5001419;28;20447;-82
2022/06/26 08:19:40;;;;;;;2.85;1.92;;;;;;;;;;5020718;28;20029;-82
2022/06/26 08:22:05;;;;;;;3.67;1.60;;;;;;;;;;4997740;28;20026;-81
2022/06/26 08:24:31;;;;;;;2.72;1.88;;;;;;;;;;5009787;28;20053;-82
2022/06/26 08:26:57;;;;;;;2.40;1.92;;;;;;;;;;5011717;28;20029;-83
2022/06/26 08:29:22;;;;;;;2.63;1.77;;;;;;;;;;5007629;28;20038;-83
2022/06/26 08:31:48;;;;;;;3.92;2.05;;;;;;;;;;5007489;28;20163;-82
2022/06/26 08:34:13;;;;;;;3.22;1.80;;;;;;;;;;5022018;28;20172;-82
2022/06/26 08:36:39;;;;;;;2.30;1.70;;;;;;;;;;4998272;28;20049;-83
2022/06/26 08:39:06;;;;;;;2.72;1.98;;;;;;;;;;5027843;28;20049;-84
2022/06/26 08:41:33;;;;;;;3.30;2.00;;;;;;;;;;4997321;28;20125;-82
2022/06/26 08:43:59;;;;;;;3.47;1.75;;;;;;;;;;5012199;28;20030;-83
2022/06/26 08:46:24;;;;;;;2.67;1.80;;;;;;;;;;5011984;28;20018;-84
2022/06/26 08:48:50;;;;;;;4.72;2.08;;;;;;;;;;5013960;28;20481;-83
2022/06/26 08:51:15;;;;;;;3.42;1.60;;;;;;;;;;4988577;28;20136;-81
2022/06/26 08:53:41;;;;;;;4.25;1.80;;;;;;;;;;5015815;28;20022;-84
2022/06/26 08:56:06;;;;;;;2.60;1.80;;;;;;;;;;5017682;28;20033;-82
2022/06/26 08:58:32;;;;;;;3.78;1.92;;;;;;;;;;5017196;28;20034;-82
2022/06/26 09:00:57;;;;;;;3.03;2.00;;;;;;;;;;5016221;28;20116;-81
2022/06/26 09:03:23;;;;;;;3.15;1.80;;;;;;;;;;4999666;28;20097;-86
2022/06/26 09:05:49;;;;;;;5.97;1.88;;;;;;;;;;5019229;28;20041;-81
2022/06/26 09:08:18;;;;;;;3.05;2.00;;;;;;;;;;5015853;28;20040;-82
2022/06/26 09:10:44;;;;;;;4.00;2.10;;;;;;;;;;5015865;28;20022;-83
2022/06/26 09:13:10;;;;;;;3.05;1.90;;;;;;;;;;4999049;28;20042;-83
2022/06/26 09:15:37;;;;;;;5.28;2.05;;;;;;;;;;4999387;28;20076;-82
2022/06/26 09:18:06;;;;;;;3.55;1.85;;;;;;;;;;4999225;28;20038;-81
2022/06/26 09:20:32;;;;;;;2.33;1.90;;;;;;;;;;5016415;28;20032;-81
2022/06/26 09:22:59;;;;;;;3.85;1.83;;;;;;;;;;5021365;28;20055;-82
2022/06/26 09:25:38;;;;;;;2.85;2.05;;;;;;;;;;5014663;28;20050;-80
2022/06/26 09:28:07;;;;;;;3.50;1.98;;;;;;;;;;5014188;28;20092;-81
2022/06/26 09:30:33;;;;;;;4.57;2.03;;;;;;;;;;5014283;28;20150;-80
2022/06/26 09:33:00;;;;;;;2.63;1.80;;;;;;;;;;5013594;28;20057;-81
2022/06/26 09:35:26;;;;;;;5.25;2.08;;;;;;;;;;5013900;28;20449;-80
2022/06/26 09:37:51;;;;;;;8.05;2.00;;;;;;;;;;5013744;28;20068;-79
2022/06/26 09:40:16;;;;;;;3.35;2.00;;;;;;;;;;5000149;28;20117;-78
2022/06/26 09:42:42;;;;;;;3.05;1.92;;;;;;;;;;5009297;28;20448;-80
2022/06/26 09:45:08;;;;;;;3.50;1.70;;;;;;;;;;4989985;28;20022;-80
2022/06/26 09:47:38;;;;;;;2.70;1.50;;;;;;;;;;5013900;28;20121;-83
2022/06/26 09:50:05;;;;;;;4.43;1.80;;;;;;;;;;4995670;28;20030;-80
2022/06/26 09:52:31;;;;;;;2.17;1.50;;;;;;;;;;4997698;28;20027;-80
2022/06/26 09:54:57;;;;;;;10.50;1.75;;;;;;;;;;4996036;28;20133;-81
2022/06/26 09:57:25;;;;;;;1.92;1.50;;;;;;;;;;4977984;28;20106;-80
2022/06/26 09:59:51;;;;;;;2.67;1.60;;;;;;;;;;4993911;28;20649;-79
2022/06/26 10:07:46;;;;;;;4.35;1.70;;;;;;;;;;5003935;28;20512;-79
2022/06/26 10:10:12;;;;;;;2.53;1.60;;;;;;;;;;4988896;28;20458;-80
2022/06/26 10:12:38;;;;;;;2.95;1.50;;;;;;;;;;4991724;28;20066;-82
2022/06/26 10:15:03;;;;;;;4.85;1.50;;;;;;;;;;4994884;28;20034;-80
2022/06/26 10:17:47;;;;;;;4.35;1.60;;;;;;;;;;5010377;28;20030;-81
2022/06/26 10:20:15;;;;;;;2.88;1.60;;;;;;;;;;5009240;28;20413;-81
2022/06/26 10:22:41;;;;;;;2.47;1.77;;;;;;;;;;4990736;28;20026;-80
2022/06/26 10:25:07;;;;;;;2.53;1.60;;;;;;;;;;4990784;28;20399;-80
2022/06/26 10:27:33;;;;;;;2.20;1.33;;;;;;;;;;4996102;28;20034;-80
2022/06/26 10:30:06;;;;;;;2.17;1.58;;;;;;;;;;5010433;28;20073;-80
2022/06/26 10:32:31;;;;;;;3.42;1.70;;;;;;;;;;4995243;28;20039;-82
2022/06/26 10:34:57;;;;;;;2.20;1.52;;;;;;;;;;4995453;28;20034;-80
2022/06/26 10:37:22;;;;;;;4.72;1.73;;;;;;;;;;5015554;28;20038;-80
2022/06/26 10:39:52;;;;;;;2.75;1.63;;;;;;;;;;5013270;28;20485;-80
2022/06/26 10:45:12;;;;;;;1.88;1.30;;;;;;;;;;5008389;28;20035;-80
2022/06/26 10:47:45;;;;;;;2.75;1.80;;;;;;;;;;5000340;28;20036;-80
2022/06/26 10:50:29;;;;;;;2.97;1.50;;;;;;;;;;4995363;28;20034;-80
2022/06/26 10:53:13;;;;;;;2.55;1.63;;;;;;;;;;5011807;28;20038;-80
2022/06/26 10:55:39;;;;;;;2.42;1.40;;;;;;;;;;4994898;28;20092;-80
2022/06/26 10:58:05;;;;;;;3.92;2.05;;;;;;;;;;4996217;28;20026;-80
2022/06/26 11:00:30;;;;;;;4.18;1.88;;;;;;;;;;4995498;28;20034;-79
2022/06/26 11:02:55;;;;;;;4.65;1.73;;;;;;;;;;4993349;28;20110;-82
2022/06/26 11:05:21;;;;;;;2.75;1.60;;;;;;;;;;5009814;28;20168;-80
2022/06/26 11:07:48;;;;;;;5.28;1.70;;;;;;;;;;4994201;28;20037;-80
2022/06/26 11:10:14;;;;;;;3.88;1.77;;;;;;;;;;4994117;28;20023;-81
2022/06/26 11:12:40;;;;;;;2.20;1.50;;;;;;;;;;4992708;28;20157;-81
2022/06/26 11:15:06;;;;;;;2.70;1.60;;;;;;;;;;4992965;28;20525;-80
2022/06/26 11:17:33;;;;;;;2.47;1.80;;;;;;;;;;4994275;28;20026;-79
2022/06/26 11:22:42;;;;;;;3.83;1.77;;;;;;;;;;5009170;28;20046;-80
2022/06/26 11:25:08;;;;;;;3.20;1.70;;;;;;;;;;4990088;28;20050;-80
2022/06/26 11:27:34;;;;;;;3.13;1.67;;;;;;;;;;5009000;28;20540;-81
2022/06/26 11:29:59;;;;;;;2.38;1.80;;;;;;;;;;4973780;28;20037;-81
2022/06/26 11:32:25;;;;;;;3.15;1.60;;;;;;;;;;5008981;28;20038;-81
2022/06/26 11:34:50;;;;;;;3.10;1.70;;;;;;;;;;4976759;28;20125;-80
2022/06/26 11:37:16;;;;;;;2.42;1.50;;;;;;;;;;4989327;28;20093;-81
2022/06/26 11:39:41;;;;;;;2.38;1.60;;;;;;;;;;4995493;28;20113;-80
2022/06/26 11:42:14;;;;;;;2.78;2.00;;;;;;;;;;4993685;28;20042;-79
2022/06/26 11:44:49;;;;;;;4.97;2.30;;;;;;;;;;4992053;28;20065;-79
2022/06/26 11:47:15;;;;;;;3.10;1.88;;;;;;;;;;4994959;28;20033;-79
2022/06/26 11:49:41;;;;;;;3.10;1.80;;;;;;;;;;4976483;28;20468;-79
2022/06/26 11:52:07;;;;;;;2.58;1.70;;;;;;;;;;4994748;28;20034;-80
2022/06/26 11:54:32;;;;;;;2.95;1.83;;;;;;;;;;5008534;28;21436;-81
2022/06/26 11:57:02;;;;;;;3.25;1.90;;;;;;;;;;4992169;28;20535;-80
2022/06/26 11:59:28;;;;;;;2.35;1.77;;;;;;;;;;5009596;28;20584;-78
2022/06/26 12:01:53;;;;;;;2.95;1.70;;;;;;;;;;4992997;28;20133;-81
2022/06/26 12:04:19;;;;;;;3.13;1.60;;;;;;;;;;5010819;28;20023;-79
2022/06/26 12:06:48;;;;;;;2.53;1.55;;;;;;;;;;4994058;28;20481;-79
2022/06/26 12:09:19;;;;;;;3.45;1.58;;;;;;;;;;4974204;28;20034;-79
2022/06/26 12:11:45;;;;;;;2.97;1.67;;;;;;;;;;4996487;28;20042;-80
2022/06/26 12:14:11;;;;;;;3.20;1.70;;;;;;;;;;4993431;28;20095;-79
2022/06/26 12:16:46;;;;;;;2.28;1.70;;;;;;;;;;4995181;28;20511;-82
2022/06/26 12:19:11;;;;;;;2.10;1.50;;;;;;;;;;4990062;28;20057;-78
2022/06/26 12:21:37;;;;;;;2.80;1.60;;;;;;;;;;4972415;28;20027;-79
2022/06/26 12:24:08;;;;;;;2.65;1.70;;;;;;;;;;4989420;28;20058;-80
2022/06/26 12:26:36;;;;;;;3.85;1.85;;;;;;;;;;4991746;28;20164;-79
2022/06/26 12:29:06;;;;;;;3.05;1.40;;;;;;;;;;4992599;28;20030;-80
2022/06/26 12:31:32;;;;;;;2.10;1.60;;;;;;;;;;4990628;28;20042;-79
2022/06/26 12:33:57;;;;;;;4.10;1.50;;;;;;;;;;4992489;28;20035;-80
2022/06/26 12:36:23;;;;;;;3.60;1.70;;;;;;;;;;4992884;28;20030;-80
2022/06/26 12:38:48;;;;;;;3.38;1.50;;;;;;;;;;4992925;28;20026;-79
2022/06/26 12:41:16;;;;;;;3.00;1.70;;;;;;;;;;5007676;28;20038;-79
2022/06/26 12:43:43;;;;;;;2.17;1.50;;;;;;;;;;4992463;28;20033;-79
2022/06/26 12:46:09;;;;;;;3.33;1.77;;;;;;;;;;4991181;28;20088;-80
2022/06/26 12:48:34;;;;;;;1.95;1.45;;;;;;;;;;4992973;28;20019;-79
2022/06/26 12:51:00;;;;;;;3.28;1.65;;;;;;;;;;4992708;28;20437;-79
2022/06/26 12:53:25;;;;;;;3.10;1.50;;;;;;;;;;4991535;28;20033;-79
2022/06/26 12:55:50;;;;;;;3.17;1.60;;;;;;;;;;4992856;28;20042;-79
2022/06/26 12:58:16;;;;;;;3.40;1.58;;;;;;;;;;4991386;28;20401;-80
2022/06/26 13:00:41;;;;;;;3.13;2.10;;;;;;;;;;4992486;28;20039;-78
2022/06/26 13:03:07;;;;;;;3.13;1.60;;;;;;;;;;4992428;28;20393;-80
2022/06/26 13:05:32;;;;;;;2.75;1.52;;;;;;;;;;4992679;28;20519;-79
2022/06/26 13:07:58;;;;;;;2.33;1.67;;;;;;;;;;5007479;28;20109;-81
2022/06/26 13:10:23;;;;;;;2.65;1.55;;;;;;;;;;4991490;28;20034;-84
2022/06/26 13:12:49;;;;;;;2.55;1.60;;;;;;;;;;5007530;28;20030;-80
2022/06/26 13:15:14;;;;;;;2.80;1.75;;;;;;;;;;4991700;28;20045;-80
2022/06/26 13:17:40;;;;;;;2.22;1.50;;;;;;;;;;4991774;28;20023;-81
2022/06/26 13:20:06;;;;;;;3.90;1.80;;;;;;;;;;5007422;28;20116;-79
2022/06/26 13:22:32;;;;;;;2.20;1.58;;;;;;;;;;5005894;28;20489;-82
2022/06/26 13:24:58;;;;;;;6.03;2.05;;;;;;;;;;5004381;28;20490;-80
2022/06/26 13:27:23;;;;;;;2.30;1.65;;;;;;;;;;5008747;28;20056;-79
2022/06/26 13:29:49;;;;;;;1.90;1.50;;;;;;;;;;5008248;28;20088;-78
2022/06/26 13:32:14;;;;;;;2.25;1.60;;;;;;;;;;4991369;28;20053;-79
2022/06/26 13:34:40;;;;;;;3.10;1.60;;;;;;;;;;4994253;28;20081;-79
2022/06/26 13:37:05;;;;;;;2.45;1.60;;;;;;;;;;4978880;28;20014;-83
2022/06/26 13:39:31;;;;;;;2.40;1.60;;;;;;;;;;5005855;28;20493;-82
2022/06/26 13:41:56;;;;;;;4.65;1.85;;;;;;;;;;5009080;28;20084;-80
2022/06/26 13:44:22;;;;;;;2.78;1.70;;;;;;;;;;5009386;28;20030;-80
2022/06/26 13:46:48;;;;;;;3.20;1.80;;;;;;;;;;4994457;28;20022;-80
2022/06/26 13:49:13;;;;;;;3.28;1.70;;;;;;;;;;5010647;28;20054;-80
2022/06/26 13:51:39;;;;;;;2.92;1.70;;;;;;;;;;4993939;28;20544;-80
2022/06/26 13:54:04;;;;;;;2.28;1.70;;;;;;;;;;4994667;28;20178;-79
2022/06/26 13:56:30;;;;;;;4.72;1.85;;;;;;;;;;4994237;28;20125;-78
2022/06/26 13:58:55;;;;;;;4.15;1.75;;;;;;;;;;4995618;28;20030;-79
2022/06/26 14:01:22;;;;;;;2.10;1.52;;;;;;;;;;4994127;28;20030;-83
2022/06/26 14:03:47;;;;;;;4.05;1.80;;;;;;;;;;4994082;28;20065;-79
2022/06/26 14:06:13;;;;;;;3.63;1.70;;;;;;;;;;4994275;28;20100;-79
2022/06/26 14:08:38;;;;;;;2.30;1.50;;;;;;;;;;5010369;28;20034;-80
2022/06/26 14:11:04;;;;;;;2.90;1.70;;;;;;;;;;4994167;28;20033;-83
2022/06/26 14:13:29;;;;;;;4.10;1.70;;;;;;;;;;4993784;28;20038;-78
2022/06/26 14:15:55;;;;;;;2.65;1.80;;;;;;;;;;4995370;28;20037;-79
2022/06/26 14:18:20;;;;;;;4.78;2.00;;;;;;;;;;4995220;28;20121;-79
2022/06/26 14:20:45;;;;;;;2.53;1.70;;;;;;;;;;4994973;28;20026;-78
2022/06/26 14:25:57;;;;;;;2.80;1.58;;;;;;;;;;4997010;28;20130;-83
2022/06/26 14:28:23;;;;;;;6.28;1.90;;;;;;;;;;4997415;28;20150;-77
2022/06/26 14:30:48;;;;;;;3.92;2.20;;;;;;;;;;4996680;28;20030;-79
2022/06/26 14:33:17;;;;;;;3.42;1.75;;;;;;;;;;4997168;28;20049;-78
2022/06/26 14:35:43;;;;;;;2.60;1.88;;;;;;;;;;5011892;28;20072;-80
2022/06/26 14:38:08;;;;;;;3.70;2.00;;;;;;;;;;4996652;28;20485;-85
2022/06/26 14:40:34;;;;;;;4.40;1.98;;;;;;;;;;4994218;28;20490;-83
2022/06/26 14:42:59;;;;;;;4.53;1.88;;;;;;;;;;4993998;28;20084;-82
2022/06/26 14:45:25;;;;;;;3.25;1.70;;;;;;;;;;4993802;28;20030;-79
2022/06/26 14:47:50;;;;;;;3.67;2.15;;;;;;;;;;4995632;28;20022;-79
2022/06/26 14:50:16;;;;;;;3.45;1.73;;;;;;;;;;4994317;28;20027;-81